CheckWX is a tool to help pilots better visualize weather data.  It is not intended as a substitute for an official pre-flight weather briefing.

08:22:51 UTC

KAUW TAF
Wausau Downtown Airport
Wausau, Wisconsin, USA
KAUW 280520Z 2806/2906 31006KT P6SM SKC FM281600 31011G17KT P6SM FEW045 FM282300 31005G15KT P6SM SKC

Feb-28@
06:00 UTC

Feb-28 @ 06:00 UTC

Feb-28@
16:00 UTC

Feb-28 @ 16:00 UTC

KAUW 280520Z 2806/2906 31006KT P6SM SKC
Wind
  • 310° at 6 KTS
Cloud Levels
  • Clear skies

Feb-28@
16:00 UTC

Feb-28 @ 16:00 UTC

Feb-28@
23:00 UTC

Feb-28 @ 23:00 UTC

FM281600 31011G17KT P6SM FEW045

From

From Standard forecast or significant change

Wind
  • 310° at 11 KTS
  • {Gusting to 17 KTS
Cloud Levels
  • Few at 4,500' AGL

Feb-28@
23:00 UTC

Feb-28 @ 23:00 UTC

Feb-29@
06:00 UTC

Feb-29 @ 06:00 UTC

FM282300 31005G15KT P6SM SKC

From

From Standard forecast or significant change

Wind
  • 310° at 5 KTS
  • {Gusting to 15 KTS
Cloud Levels
  • Clear skies